Atlantic Rainbow — 3FBT3 — position and weather

sailwx.info

Track history (hours):
 
Tides and Currents Weather Stations Pressure Air Temp Water Temp Dewpoint Dewpoint Depression Visibility Wind Speed Wind Dir Waves Ship Positions

Atlantic Rainbow

Last reported at 2018-Jan-03 05:09 UTC. Time now 2018-Jan-21 10:49 UTC.
Position S 29°36' E 032°08'.
Warning: this ship's position is 18 days out of date.

Length 170 m; draft 9 m.

Type: Other ship. MMSI: 373796000.

Date/timePositionNaut miles runAvg speedWind from/ knotsBaromVisibWave heightAir tempDewpointWater temp
2018-Jan-03 05:09S 29°36' E 032°08'212.1
2018-Jan-03 04:56S 29°36' E 032°05'511.0
2018-Jan-03 04:30S 29°38' E 031°59'510.7
2018-Jan-03 04:00S 29°39' E 031°54'511.1
2018-Jan-03 03:30S 29°41' E 031°48'611.2
2018-Jan-03 03:00S 29°42' E 031°41'711.4
2018-Jan-03 02:21S 29°44' E 031°33'412.1
2018-Jan-03 02:00S 29°45' E 031°28'612.5
2018-Jan-03 01:30S 29°46' E 031°21'612.6
2018-Jan-03 01:00S 29°48' E 031°14'612.7
2018-Jan-03 00:30S 29°50' E 031°07'5 9.5
2018-Jan-03 00:00S 29°53' E 031°03'0 0.7
2018-Jan-02 23:29S 29°52' E 031°03'0 0.0
2018-Jan-02 22:59S 29°52' E 031°03'0 0.0
2018-Jan-02 22:29S 29°52' E 031°03'0 0.0
2018-Jan-02 21:59S 29°52' E 031°03'0 0.0
2018-Jan-02 21:29S 29°52' E 031°03'0 0.0
2018-Jan-02 20:59S 29°52' E 031°03'0 0.0
2018-Jan-02 20:29S 29°52' E 031°03'0 0.0
2018-Jan-02 19:56S 29°52' E 031°03'0 0.0
2018-Jan-02 19:29S 29°52' E 031°03'0 0.0
2018-Jan-02 18:53S 29°52' E 031°03'0 0.0
2018-Jan-02 18:29S 29°52' E 031°03'0 0.5
2018-Jan-02 18:00S 29°53' E 031°03'3 6.3
2018-Jan-02 17:30S 29°50' E 031°05'2 4.1
2018-Jan-02 17:00S 29°50' E 031°08'0 1.0
2018-Jan-02 16:30S 29°50' E 031°08'1 1.5
2018-Jan-02 16:00S 29°50' E 031°09'3 5.7
2018-Jan-02 15:30S 29°49' E 031°12'2 4.3
2018-Jan-02 15:00S 29°51' E 031°14'4 7.3
2018-Jan-02 14:30S 29°54' E 031°14'1 2.7
2018-Jan-02 14:00S 29°54' E 031°13'2 4.6
2018-Jan-02 13:30S 29°54' E 031°16'612.1
2018-Jan-02 13:00S 29°59' E 031°11'612.5
2018-Jan-02 12:30S 30°04' E 031°07'612.7
2018-Jan-02 12:00S 30°09' E 031°03'713.3
2018-Jan-02 11:31S 30°15' E 030°59'713.6
2018-Jan-02 11:00S 30°21' E 030°55'  
Track history (hours):
 
Tides and Currents Weather Stations Pressure Air Temp Water Temp Dewpoint Dewpoint Depression Visibility Wind Speed Wind Dir Waves Ship Positions

Atlantic Rainbow

Last reported at 2018-Jan-03 05:09 UTC. Time now 2018-Jan-21 10:49 UTC.
Position S 29°36' E 032°08'.
Warning: this ship's position is 18 days out of date.

Length 170 m; draft 9 m.

Type: Other ship. MMSI: 373796000.

Date/timePositionNaut miles runAvg speedWind from/ knotsBaromVisibWave heightAir tempDewpointWater temp
2018-Jan-03 05:09S 29°36' E 032°08'212.1
2018-Jan-03 04:56S 29°36' E 032°05'511.0
2018-Jan-03 04:30S 29°38' E 031°59'510.7
2018-Jan-03 04:00S 29°39' E 031°54'511.1
2018-Jan-03 03:30S 29°41' E 031°48'611.2
2018-Jan-03 03:00S 29°42' E 031°41'711.4
2018-Jan-03 02:21S 29°44' E 031°33'412.1
2018-Jan-03 02:00S 29°45' E 031°28'612.5
2018-Jan-03 01:30S 29°46' E 031°21'612.6
2018-Jan-03 01:00S 29°48' E 031°14'612.7
2018-Jan-03 00:30S 29°50' E 031°07'5 9.5
2018-Jan-03 00:00S 29°53' E 031°03'0 0.7
2018-Jan-02 23:29S 29°52' E 031°03'0 0.0
2018-Jan-02 22:59S 29°52' E 031°03'0 0.0
2018-Jan-02 22:29S 29°52' E 031°03'0 0.0
2018-Jan-02 21:59S 29°52' E 031°03'0 0.0
2018-Jan-02 21:29S 29°52' E 031°03'0 0.0
2018-Jan-02 20:59S 29°52' E 031°03'0 0.0
2018-Jan-02 20:29S 29°52' E 031°03'0 0.0
2018-Jan-02 19:56S 29°52' E 031°03'0 0.0
2018-Jan-02 19:29S 29°52' E 031°03'0 0.0
2018-Jan-02 18:53S 29°52' E 031°03'0 0.0
2018-Jan-02 18:29S 29°52' E 031°03'0 0.5
2018-Jan-02 18:00S 29°53' E 031°03'3 6.3
2018-Jan-02 17:30S 29°50' E 031°05'2 4.1
2018-Jan-02 17:00S 29°50' E 031°08'0 1.0
2018-Jan-02 16:30S 29°50' E 031°08'1 1.5
2018-Jan-02 16:00S 29°50' E 031°09'3 5.7
2018-Jan-02 15:30S 29°49' E 031°12'2 4.3
2018-Jan-02 15:00S 29°51' E 031°14'4 7.3
2018-Jan-02 14:30S 29°54' E 031°14'1 2.7
2018-Jan-02 14:00S 29°54' E 031°13'2 4.6
2018-Jan-02 13:30S 29°54' E 031°16'612.1
2018-Jan-02 13:00S 29°59' E 031°11'612.5
2018-Jan-02 12:30S 30°04' E 031°07'612.7
2018-Jan-02 12:00S 30°09' E 031°03'713.3
2018-Jan-02 11:31S 30°15' E 030°59'713.6
2018-Jan-02 11:00S 30°21' E 030°55'  

Dump ship's entire track history